createdAt,value
2019-03-11T00:00:47.817Z,49.68
2019-03-11T00:01:47.805Z,49.68
2019-03-11T00:02:47.831Z,49.68
2019-03-11T00:03:47.789Z,49.68
2019-03-11T00:04:47.776Z,49.68
2019-03-11T00:05:47.758Z,49.68
2019-03-11T00:06:47.751Z,49.68
2019-03-11T00:07:47.866Z,49.68
2019-03-11T00:08:47.734Z,49.68
2019-03-11T00:09:47.718Z,49.68
2019-03-11T00:10:47.710Z,49.68
2019-03-11T00:11:47.701Z,49.68
2019-03-11T00:12:47.719Z,49.68
2019-03-11T00:13:47.677Z,49.68
2019-03-11T00:14:47.750Z,49.68
2019-03-11T00:15:47.682Z,49.68
2019-03-11T00:16:47.649Z,49.68
2019-03-11T00:17:47.630Z,49.68
2019-03-11T00:18:47.648Z,49.68
2019-03-11T00:19:47.609Z,49.68
2019-03-11T00:20:47.598Z,49.68
2019-03-11T00:21:47.585Z,49.68
2019-03-11T00:22:47.582Z,49.68
2019-03-11T00:23:47.603Z,49.68
2019-03-11T00:24:47.554Z,49.68
2019-03-11T00:25:47.543Z,49.68
2019-03-11T00:26:47.532Z,49.68
2019-03-11T00:27:47.525Z,49.68
2019-03-11T00:28:47.547Z,49.68
2019-03-11T00:29:49.422Z,49.68
2019-03-11T00:30:47.494Z,49.68
2019-03-11T00:31:47.480Z,49.68
2019-03-11T00:32:47.474Z,49.68
2019-03-11T00:33:47.500Z,49.68
2019-03-11T00:34:47.451Z,49.77
2019-03-11T00:35:47.440Z,49.77
2019-03-11T00:36:47.424Z,49.77
2019-03-11T00:37:47.430Z,49.68
2019-03-11T00:38:47.436Z,49.68
2019-03-11T00:39:47.418Z,49.77
2019-03-11T00:40:47.379Z,49.68
2019-03-11T00:41:47.369Z,49.77
2019-03-11T00:42:47.359Z,49.77
2019-03-11T00:43:47.349Z,49.77
2019-03-11T00:44:47.370Z,49.77
2019-03-11T00:45:47.330Z,49.77
2019-03-11T00:46:47.312Z,49.77
2019-03-11T00:47:47.302Z,49.77
2019-03-11T00:48:47.293Z,49.77
2019-03-11T00:49:47.315Z,49.77
2019-03-11T00:50:47.276Z,49.77
2019-03-11T00:51:47.264Z,49.77
2019-03-11T00:52:47.355Z,49.77
2019-03-11T00:53:47.238Z,49.77
2019-03-11T00:54:47.254Z,49.77
2019-03-11T00:55:47.216Z,49.77
2019-03-11T00:56:47.207Z,49.77
2019-03-11T00:57:47.191Z,49.77
2019-03-11T00:58:47.184Z,49.77
2019-03-11T00:59:47.212Z,49.77
2019-03-11T01:00:47.213Z,49.77
2019-03-11T01:01:47.147Z,49.88
2019-03-11T01:02:47.139Z,49.77
2019-03-11T01:03:47.134Z,49.88
2019-03-11T01:04:47.153Z,49.88
2019-03-11T01:05:47.106Z,49.88
2019-03-11T01:06:47.101Z,49.88
2019-03-11T01:07:47.118Z,49.77
2019-03-11T01:08:47.072Z,49.77
2019-03-11T01:09:47.093Z,49.77
2019-03-11T01:10:47.051Z,49.88
2019-03-11T01:11:47.044Z,49.88
2019-03-11T01:12:47.031Z,49.77
2019-03-11T01:13:47.022Z,49.88
2019-03-11T01:14:47.033Z,49.88
2019-03-11T01:15:46.999Z,49.88
2019-03-11T01:16:46.991Z,49.88
2019-03-11T01:17:46.977Z,49.88
2019-03-11T01:18:46.962Z,49.88
2019-03-11T01:19:46.989Z,49.88
2019-03-11T01:20:46.974Z,49.77
2019-03-11T01:21:46.938Z,49.88
2019-03-11T01:22:46.947Z,49.77
2019-03-11T01:23:46.917Z,49.88
2019-03-11T01:24:46.904Z,49.88
2019-03-11T01:25:46.889Z,49.88
2019-03-11T01:26:46.910Z,49.88
2019-03-11T01:27:46.868Z,49.88
2019-03-11T01:28:46.856Z,49.88
2019-03-11T01:29:46.875Z,49.88
2019-03-11T01:30:46.834Z,49.88
2019-03-11T01:31:46.823Z,49.88
2019-03-11T01:32:46.815Z,49.88
2019-03-11T01:33:46.836Z,49.88
2019-03-11T01:34:46.820Z,49.88
2019-03-11T01:35:46.777Z,49.88
2019-03-11T01:36:46.767Z,49.88
2019-03-11T01:37:46.763Z,49.88
2019-03-11T01:38:46.746Z,49.88
2019-03-11T01:39:46.762Z,49.88
2019-03-11T01:40:46.725Z,49.88
2019-03-11T01:41:46.717Z,49.88
2019-03-11T01:42:46.705Z,49.88
2019-03-11T01:43:46.697Z,49.88
2019-03-11T01:44:46.709Z,49.88
2019-03-11T01:45:46.671Z,49.88
2019-03-11T01:46:46.658Z,49.88
2019-03-11T01:47:46.648Z,49.88
2019-03-11T01:48:46.669Z,49.88
2019-03-11T01:49:46.659Z,49.88
2019-03-11T01:50:46.612Z,49.88
2019-03-11T01:51:46.601Z,49.88
2019-03-11T01:52:46.589Z,49.88
2019-03-11T01:53:46.585Z,49.77
2019-03-11T01:54:46.602Z,49.77
2019-03-11T01:55:46.559Z,49.88
2019-03-11T01:56:46.614Z,49.88
2019-03-11T01:57:46.539Z,49.77
2019-03-11T01:58:46.529Z,49.77
2019-03-11T01:59:46.517Z,49.77
2019-03-11T02:00:46.600Z,49.77
2019-03-11T02:01:48.502Z,49.88
2019-03-11T02:02:46.488Z,49.88
2019-03-11T02:03:46.470Z,49.88
2019-03-11T02:04:46.469Z,49.88
2019-03-11T02:05:46.481Z,49.88
2019-03-11T02:06:46.446Z,49.88
2019-03-11T02:07:46.427Z,49.88
2019-03-11T02:08:46.418Z,49.88
2019-03-11T02:09:46.413Z,49.90
2019-03-11T02:10:46.441Z,49.88
2019-03-11T02:11:46.387Z,49.88
2019-03-11T02:12:46.379Z,49.90
2019-03-11T02:13:46.361Z,49.90
2019-03-11T02:14:46.355Z,49.90
2019-03-11T02:15:46.383Z,49.90
2019-03-11T02:16:46.331Z,49.88
2019-03-11T02:17:46.325Z,49.88
2019-03-11T02:18:46.319Z,49.88
2019-03-11T02:19:46.311Z,49.90
2019-03-11T02:20:46.319Z,49.90
2019-03-11T02:21:46.283Z,49.88
2019-03-11T02:22:46.277Z,49.90
2019-03-11T02:23:46.255Z,49.88
2019-03-11T02:24:46.278Z,49.90
2019-03-11T02:25:46.263Z,49.90
2019-03-11T02:26:46.220Z,49.90
2019-03-11T02:27:46.221Z,49.90
2019-03-11T02:28:46.201Z,49.90
2019-03-11T02:29:46.201Z,49.90
2019-03-11T02:30:46.211Z,49.90
2019-03-11T02:31:46.173Z,49.90
2019-03-11T02:32:46.158Z,49.90
2019-03-11T02:33:46.151Z,49.90
2019-03-11T02:34:46.139Z,49.90
2019-03-11T02:35:46.164Z,49.90
2019-03-11T02:36:46.123Z,49.90
2019-03-11T02:37:46.108Z,49.90
2019-03-11T02:38:46.092Z,49.90
2019-03-11T02:39:46.088Z,49.90
2019-03-11T02:40:46.118Z,49.90
2019-03-11T02:41:46.062Z,49.90
2019-03-11T02:42:46.077Z,49.90
2019-03-11T02:43:46.058Z,49.90
2019-03-11T02:44:46.037Z,49.90
2019-03-11T02:45:46.052Z,49.90
2019-03-11T02:46:46.018Z,49.90
2019-03-11T02:47:45.996Z,49.90
2019-03-11T02:48:45.990Z,49.90
2019-03-11T02:49:45.981Z,49.90
2019-03-11T02:50:46.003Z,49.90
2019-03-11T02:51:45.959Z,49.90
2019-03-11T02:52:45.979Z,49.90
2019-03-11T02:53:45.932Z,49.90
2019-03-11T02:54:45.926Z,49.90
2019-03-11T02:55:45.916Z,49.90
2019-03-11T02:56:45.906Z,49.90
2019-03-11T02:57:45.931Z,49.90
2019-03-11T02:58:45.880Z,49.90
2019-03-11T02:59:45.869Z,49.90
2019-03-11T03:00:45.863Z,49.90
2019-03-11T03:01:45.846Z,49.90
2019-03-11T03:02:45.890Z,49.90
2019-03-11T03:03:45.831Z,49.90
2019-03-11T03:04:45.822Z,49.90
2019-03-11T03:05:45.824Z,49.90
2019-03-11T03:06:45.795Z,49.90
2019-03-11T03:07:45.819Z,49.90
2019-03-11T03:08:45.779Z,49.90
2019-03-11T03:09:45.763Z,49.90
2019-03-11T03:10:45.754Z,49.90
2019-03-11T03:11:45.741Z,49.90
2019-03-11T03:12:45.757Z,49.90
2019-03-11T03:13:45.756Z,49.90
2019-03-11T03:14:45.708Z,49.90
2019-03-11T03:15:45.716Z,49.90
2019-03-11T03:16:45.692Z,49.90
2019-03-11T03:17:45.683Z,49.90
2019-03-11T03:18:45.704Z,49.90
2019-03-11T03:19:45.660Z,49.90
2019-03-11T03:20:45.645Z,49.90
2019-03-11T03:21:45.636Z,49.90
2019-03-11T03:22:45.621Z,49.90
2019-03-11T03:23:45.636Z,49.90
2019-03-11T03:24:45.604Z,49.90
2019-03-11T03:25:45.599Z,49.90
2019-03-11T03:26:45.582Z,49.90
2019-03-11T03:27:45.615Z,49.90
2019-03-11T03:28:45.616Z,49.90
2019-03-11T03:29:45.552Z,49.90
2019-03-11T03:30:45.539Z,49.90
2019-03-11T03:31:45.534Z,49.90
2019-03-11T03:32:45.557Z,49.90
2019-03-11T03:33:45.518Z,49.90
2019-03-11T03:34:45.549Z,49.90
2019-03-11T03:35:45.490Z,49.90
2019-03-11T03:36:45.478Z,49.90
2019-03-11T03:37:45.502Z,49.90
2019-03-11T03:38:45.464Z,49.90
2019-03-11T03:39:45.445Z,49.90
2019-03-11T03:40:45.433Z,49.90
2019-03-11T03:41:45.420Z,49.90
2019-03-11T03:42:45.542Z,49.90
2019-03-11T03:43:45.413Z,49.90
2019-03-11T03:44:45.390Z,49.90
2019-03-11T03:45:45.381Z,49.80
2019-03-11T03:46:45.363Z,49.90
2019-03-11T03:47:45.385Z,49.90
2019-03-11T03:48:45.554Z,49.90
2019-03-11T03:49:45.429Z,49.90
2019-03-11T03:50:45.374Z,49.90
2019-03-11T03:51:45.317Z,49.80
2019-03-11T03:52:45.304Z,49.80
2019-03-11T03:53:45.289Z,49.90
2019-03-11T03:54:45.281Z,49.90
2019-03-11T03:55:45.297Z,49.80
2019-03-11T03:56:45.266Z,49.80
2019-03-11T03:57:45.244Z,49.80
2019-03-11T03:58:45.235Z,49.80
2019-03-11T03:59:45.253Z,49.80
2019-03-11T04:00:45.245Z,49.90
2019-03-11T04:01:45.215Z,49.80
2019-03-11T04:02:45.195Z,49.90
2019-03-11T04:03:45.183Z,49.90
2019-03-11T04:04:45.199Z,49.80
2019-03-11T04:05:45.154Z,49.90
2019-03-11T04:06:45.179Z,49.90
2019-03-11T04:07:45.139Z,49.80
2019-03-11T04:08:45.123Z,49.80
2019-03-11T04:09:45.112Z,49.80
2019-03-11T04:10:45.099Z,49.80
2019-03-11T04:11:45.140Z,49.80
2019-03-11T04:12:45.089Z,49.80
2019-03-11T04:13:45.084Z,49.80
2019-03-11T04:14:45.063Z,49.80
2019-03-11T04:15:45.052Z,49.80
2019-03-11T04:16:45.068Z,49.80
2019-03-11T04:17:45.026Z,49.80
2019-03-11T04:18:45.015Z,49.80
2019-03-11T04:19:45.010Z,49.80
2019-03-11T04:20:45.034Z,49.80
2019-03-11T04:21:44.979Z,49.80
2019-03-11T04:22:44.970Z,49.80
2019-03-11T04:23:44.966Z,49.80
2019-03-11T04:24:44.963Z,49.80
2019-03-11T04:25:44.985Z,49.90
2019-03-11T04:26:44.924Z,49.90
2019-03-11T04:27:44.914Z,49.90
2019-03-11T04:28:44.903Z,49.90
2019-03-11T04:29:44.896Z,49.90
2019-03-11T04:30:44.907Z,49.90
2019-03-11T04:31:44.899Z,49.90
2019-03-11T04:32:44.863Z,49.90
2019-03-11T04:33:44.854Z,49.90
2019-03-11T04:34:44.862Z,49.90
2019-03-11T04:35:44.869Z,49.90
2019-03-11T04:36:44.859Z,49.90
2019-03-11T04:37:44.812Z,49.90
2019-03-11T04:38:44.800Z,49.90
2019-03-11T04:39:44.786Z,49.90
2019-03-11T04:40:44.780Z,49.90
2019-03-11T04:41:44.799Z,49.80
2019-03-11T04:42:44.754Z,49.90
2019-03-11T04:43:44.782Z,49.90
2019-03-11T04:44:44.728Z,49.90
2019-03-11T04:45:44.720Z,49.90
2019-03-11T04:46:44.712Z,49.90
2019-03-11T04:47:44.709Z,49.90
2019-03-11T04:48:44.713Z,49.90
2019-03-11T04:49:44.676Z,49.90
2019-03-11T04:50:44.672Z,49.90
2019-03-11T04:51:44.654Z,49.90
2019-03-11T04:52:44.677Z,49.90
2019-03-11T04:53:44.632Z,49.90
2019-03-11T04:54:44.649Z,49.90
2019-03-11T04:55:44.616Z,49.90
2019-03-11T04:56:44.600Z,49.90
2019-03-11T04:57:44.629Z,49.90
2019-03-11T04:58:44.581Z,49.90
2019-03-11T04:59:44.569Z,49.90
2019-03-11T05:00:44.560Z,49.90
2019-03-11T05:01:44.555Z,49.90
2019-03-11T05:02:44.585Z,49.90
2019-03-11T05:03:46.179Z,49.90
2019-03-11T05:04:44.519Z,49.90
2019-03-11T05:05:44.510Z,49.90
2019-03-11T05:06:44.495Z,49.90
2019-03-11T05:07:44.540Z,49.90
2019-03-11T05:08:44.471Z,49.90
2019-03-11T05:09:44.459Z,49.90
2019-03-11T05:10:44.455Z,49.90
2019-03-11T05:11:44.442Z,49.90
2019-03-11T05:12:44.472Z,49.90
2019-03-11T05:13:44.423Z,49.90
2019-03-11T05:14:44.412Z,49.90
2019-03-11T05:15:44.394Z,49.90
2019-03-11T05:16:44.383Z,49.90
2019-03-11T05:17:44.449Z,49.90
2019-03-11T05:18:44.406Z,49.90
2019-03-11T05:19:44.360Z,49.90
2019-03-11T05:20:44.369Z,49.90
2019-03-11T05:21:44.333Z,49.90
2019-03-11T05:22:44.325Z,49.90
2019-03-11T05:23:44.355Z,49.90
2019-03-11T05:24:44.299Z,49.80
2019-03-11T05:25:44.292Z,49.90
2019-03-11T05:26:44.281Z,49.80
2019-03-11T05:27:44.274Z,49.90
2019-03-11T05:28:44.288Z,49.80
2019-03-11T05:29:44.256Z,49.90
2019-03-11T05:30:44.262Z,49.90
2019-03-11T05:31:44.230Z,49.90
2019-03-11T05:32:44.242Z,49.80
2019-03-11T05:33:44.210Z,49.80
2019-03-11T05:34:44.194Z,49.80
2019-03-11T05:35:44.186Z,49.80
2019-03-11T05:36:44.171Z,49.80
2019-03-11T05:37:44.212Z,49.80
2019-03-11T05:38:44.152Z,49.90
2019-03-11T05:39:44.142Z,49.80
2019-03-11T05:40:44.125Z,49.80
2019-03-11T05:41:44.123Z,49.80
2019-03-11T05:42:44.136Z,49.80
2019-03-11T05:43:44.115Z,49.82
2019-03-11T05:44:44.101Z,49.80
2019-03-11T05:45:44.076Z,49.80
2019-03-11T05:46:44.062Z,49.80
2019-03-11T05:47:44.083Z,49.80
2019-03-11T05:48:44.079Z,49.93
2019-03-11T05:49:44.037Z,49.93
2019-03-11T05:50:44.020Z,49.90
2019-03-11T05:51:44.008Z,49.93
2019-03-11T05:52:44.007Z,49.82
2019-03-11T05:53:44.040Z,49.82
2019-03-11T05:54:43.980Z,49.82
2019-03-11T05:55:43.978Z,49.93
2019-03-11T05:56:43.954Z,49.93
2019-03-11T05:57:43.953Z,49.82
2019-03-11T05:58:43.978Z,49.93
2019-03-11T05:59:43.929Z,49.93
2019-03-11T06:00:43.932Z,49.93
2019-03-11T06:01:43.900Z,49.93
2019-03-11T06:02:43.918Z,49.93
2019-03-11T06:03:43.930Z,49.93
2019-03-11T06:04:43.876Z,49.93
2019-03-11T06:05:43.865Z,49.93
2019-03-11T06:06:43.849Z,49.93
2019-03-11T06:07:43.840Z,49.93
2019-03-11T06:08:43.860Z,49.93
2019-03-11T06:09:43.814Z,49.93
2019-03-11T06:10:43.808Z,49.93
2019-03-11T06:11:43.793Z,49.93
2019-03-11T06:12:43.790Z,49.93
2019-03-11T06:13:43.806Z,49.93
2019-03-11T06:14:43.768Z,49.93
2019-03-11T06:15:43.752Z,49.93
2019-03-11T06:16:43.755Z,49.93
2019-03-11T06:17:43.868Z,49.93
2019-03-11T06:18:44.619Z,49.93
2019-03-11T06:19:43.717Z,49.93
2019-03-11T06:20:43.731Z,49.93
2019-03-11T06:21:43.693Z,49.93
2019-03-11T06:22:43.675Z,49.93
2019-03-11T06:23:43.672Z,49.93
2019-03-11T06:24:43.658Z,49.93
2019-03-11T06:25:43.677Z,49.93
2019-03-11T06:26:43.635Z,49.93
2019-03-11T06:27:43.621Z,49.93
2019-03-11T06:28:43.663Z,49.93
2019-03-11T06:29:43.603Z,50.02
2019-03-11T06:30:43.594Z,50.02
2019-03-11T06:31:43.578Z,50.02
2019-03-11T06:32:43.570Z,50.02
2019-03-11T06:33:43.588Z,49.93
2019-03-11T06:34:43.549Z,49.93
2019-03-11T06:35:43.539Z,49.93
2019-03-11T06:36:43.527Z,50.02
2019-03-11T06:37:43.518Z,50.02
2019-03-11T06:38:43.541Z,50.02
2019-03-11T06:39:43.530Z,49.93
2019-03-11T06:40:45.802Z,49.93
2019-03-11T06:41:43.481Z,49.93
2019-03-11T06:42:43.464Z,49.93
2019-03-11T06:43:43.450Z,49.93
2019-03-11T06:44:43.485Z,50.02
2019-03-11T06:45:43.442Z,50.02
2019-03-11T06:46:45.846Z,49.93
2019-03-11T06:47:43.412Z,49.93
2019-03-11T06:48:43.403Z,49.93
2019-03-11T06:49:43.446Z,49.93
2019-03-11T06:50:43.375Z,49.93
2019-03-11T06:51:43.374Z,49.93
2019-03-11T06:52:43.355Z,49.93
2019-03-11T06:53:43.351Z,49.93
2019-03-11T06:54:43.377Z,49.93
2019-03-11T06:55:43.322Z,49.82
2019-03-11T06:56:43.318Z,49.93
2019-03-11T06:57:43.310Z,51.23
2019-03-11T06:58:43.296Z,53.25
2019-03-11T06:59:43.339Z,56.07
2019-03-11T07:00:43.267Z,56.07
2019-03-11T07:01:43.281Z,55.66
2019-03-11T07:02:43.258Z,55.26
2019-03-11T07:03:43.240Z,55.23
2019-03-11T07:04:43.224Z,55.23
2019-03-11T07:05:43.254Z,55.63
2019-03-11T07:06:43.207Z,55.94
2019-03-11T07:07:43.201Z,55.23
2019-03-11T07:08:43.182Z,56.24
2019-03-11T07:09:43.177Z,55.74
2019-03-11T07:10:43.204Z,55.94
2019-03-11T07:11:43.212Z,55.43
2019-03-11T07:12:43.148Z,55.03
2019-03-11T07:13:43.132Z,55.74
2019-03-11T07:14:43.118Z,55.43
2019-03-11T07:15:43.140Z,55.13
2019-03-11T07:16:43.104Z,54.33
2019-03-11T07:17:43.086Z,54.83
2019-03-11T07:18:43.072Z,54.23
2019-03-11T07:19:43.070Z,53.72
2019-03-11T07:20:43.091Z,53.12
2019-03-11T07:21:43.039Z,53.02
2019-03-11T07:22:43.030Z,52.82
2019-03-11T07:23:43.025Z,53.12
2019-03-11T07:24:43.013Z,52.72
2019-03-11T07:25:43.071Z,52.22
2019-03-11T07:26:42.988Z,52.22
2019-03-11T07:27:42.976Z,52.01
2019-03-11T07:28:42.971Z,51.84
2019-03-11T07:29:42.961Z,51.73
2019-03-11T07:30:42.990Z,51.71
2019-03-11T07:31:42.939Z,51.64
2019-03-11T07:32:42.930Z,51.64
2019-03-11T07:33:42.919Z,51.73
2019-03-11T07:34:42.904Z,51.64
2019-03-11T07:35:42.948Z,51.54
2019-03-11T07:36:42.885Z,51.43
2019-03-11T07:37:42.867Z,51.43
2019-03-11T07:38:42.865Z,51.43
2019-03-11T07:39:42.851Z,51.43
2019-03-11T07:40:42.876Z,51.43
2019-03-11T07:41:42.826Z,51.43
2019-03-11T07:42:42.823Z,51.43
2019-03-11T07:43:42.806Z,51.43
2019-03-11T07:44:42.802Z,51.43
2019-03-11T07:45:42.837Z,51.34
2019-03-11T07:46:45.371Z,51.34
2019-03-11T07:47:42.798Z,51.34
2019-03-11T07:48:42.759Z,51.34
2019-03-11T07:49:42.747Z,51.34
2019-03-11T07:50:42.731Z,51.34
2019-03-11T07:51:42.724Z,51.34
2019-03-11T07:52:42.738Z,51.34
2019-03-11T07:53:42.697Z,51.34
2019-03-11T07:54:42.686Z,51.34
2019-03-11T07:55:42.680Z,51.34
2019-03-11T07:56:42.712Z,51.73
2019-03-11T07:57:42.660Z,51.64
2019-03-11T07:58:42.660Z,51.54
2019-03-11T07:59:42.654Z,51.43
2019-03-11T08:00:52.971Z,51.54
2019-03-11T08:01:43.657Z,51.34
2019-03-11T08:02:42.601Z,51.14
2019-03-11T08:03:42.596Z,50.93
2019-03-11T08:04:42.642Z,50.93
2019-03-11T08:05:42.579Z,50.83
2019-03-11T08:06:42.574Z,50.73
2019-03-11T08:07:42.598Z,50.63
2019-03-11T08:08:42.562Z,50.63
2019-03-11T08:09:42.559Z,50.83
2019-03-11T08:10:42.520Z,50.83
2019-03-11T08:11:42.502Z,50.83
2019-03-11T08:12:42.530Z,50.83
2019-03-11T08:13:42.489Z,50.83
2019-03-11T08:14:42.478Z,50.83
2019-03-11T08:15:42.468Z,50.83
2019-03-11T08:16:42.462Z,50.83
2019-03-11T08:17:42.470Z,50.83
2019-03-11T08:18:42.431Z,50.83
2019-03-11T08:19:42.446Z,50.83
2019-03-11T08:20:42.447Z,50.93
2019-03-11T08:21:42.407Z,50.93
2019-03-11T08:22:42.392Z,50.93
2019-03-11T08:23:42.383Z,50.83
2019-03-11T08:24:42.378Z,50.93
2019-03-11T08:25:42.381Z,50.83
2019-03-11T08:26:42.346Z,50.83
2019-03-11T08:27:42.335Z,50.93
2019-03-11T08:28:42.359Z,50.93
2019-03-11T08:29:42.314Z,50.93
2019-03-11T08:30:42.336Z,50.93
2019-03-11T08:31:42.304Z,50.93
2019-03-11T08:32:42.282Z,50.93
2019-03-11T08:33:42.270Z,50.93
2019-03-11T08:34:42.295Z,50.93
2019-03-11T08:35:42.280Z,50.93
2019-03-11T08:36:42.242Z,50.93
2019-03-11T08:37:42.228Z,50.93
2019-03-11T08:38:42.220Z,50.93
2019-03-11T08:39:42.213Z,50.93
2019-03-11T08:40:43.057Z,50.93
2019-03-11T08:41:42.212Z,50.93
2019-03-11T08:42:42.191Z,50.93
2019-03-11T08:43:42.167Z,50.93
2019-03-11T08:44:42.157Z,51.03
2019-03-11T08:45:42.177Z,51.03
2019-03-11T08:46:44.480Z,51.03
2019-03-11T08:47:42.149Z,51.03
2019-03-11T08:48:42.108Z,51.03
2019-03-11T08:49:42.103Z,51.03
2019-03-11T08:50:42.088Z,51.03
2019-03-11T08:51:42.135Z,50.93
2019-03-11T08:52:42.063Z,50.93
2019-03-11T08:53:42.052Z,51.03
2019-03-11T08:54:42.063Z,51.03
2019-03-11T08:55:42.033Z,51.23
2019-03-11T08:56:42.069Z,51.34
2019-03-11T08:57:42.014Z,51.34
2019-03-11T08:58:42.002Z,51.34
2019-03-11T08:59:41.995Z,51.43
2019-03-11T09:00:41.984Z,51.43
2019-03-11T09:01:41.996Z,51.34
2019-03-11T09:02:41.959Z,51.14
2019-03-11T09:03:41.945Z,51.14
2019-03-11T09:04:41.943Z,51.14
2019-03-11T09:05:41.961Z,51.14
2019-03-11T09:06:41.912Z,51.14
2019-03-11T09:07:41.907Z,51.14
2019-03-11T09:08:41.936Z,51.14
2019-03-11T09:09:41.881Z,51.14
2019-03-11T09:10:41.908Z,51.23
2019-03-11T09:11:41.864Z,51.23
2019-03-11T09:12:41.860Z,51.23
2019-03-11T09:13:41.896Z,51.23
2019-03-11T09:14:41.834Z,51.23
2019-03-11T09:15:41.822Z,51.23
2019-03-11T09:16:41.836Z,51.23
2019-03-11T09:17:41.802Z,51.23
2019-03-11T09:18:41.814Z,51.14
2019-03-11T09:19:41.778Z,51.14
2019-03-11T09:20:41.769Z,51.14
2019-03-11T09:21:41.790Z,51.14
2019-03-11T09:22:41.745Z,51.14
2019-03-11T09:23:41.730Z,51.03
2019-03-11T09:24:41.751Z,51.03
2019-03-11T09:25:41.735Z,51.03
2019-03-11T09:26:41.762Z,51.03
2019-03-11T09:27:41.695Z,51.03
2019-03-11T09:28:41.677Z,51.03
2019-03-11T09:29:41.709Z,51.03
2019-03-11T09:30:41.658Z,51.03
2019-03-11T09:31:41.656Z,50.93
2019-03-11T09:32:41.636Z,50.93
2019-03-11T09:33:41.714Z,51.03
2019-03-11T09:34:41.652Z,51.03
2019-03-11T09:35:41.601Z,51.03
2019-03-11T09:36:41.609Z,51.03
2019-03-11T09:37:41.585Z,51.14
2019-03-11T09:38:41.600Z,51.23
2019-03-11T09:39:41.564Z,51.14
2019-03-11T09:40:41.545Z,51.14
2019-03-11T09:41:41.557Z,51.03
2019-03-11T09:42:41.528Z,51.03
2019-03-11T09:43:41.543Z,51.14
2019-03-11T09:44:41.508Z,51.93
2019-03-11T09:45:41.519Z,52.14
2019-03-11T09:46:41.491Z,52.34
2019-03-11T09:47:41.476Z,52.04
2019-03-11T09:48:41.511Z,51.54
2019-03-11T09:49:41.457Z,51.23
2019-03-11T09:50:41.439Z,51.23
2019-03-11T09:51:41.450Z,51.03
2019-03-11T09:52:41.434Z,51.14
2019-03-11T09:53:41.440Z,51.23
2019-03-11T09:54:41.397Z,51.43
2019-03-11T09:55:41.388Z,51.43
2019-03-11T09:56:43.560Z,51.43
2019-03-11T09:57:41.369Z,51.43
2019-03-11T09:58:41.383Z,51.43
2019-03-11T09:59:41.346Z,51.43
2019-03-11T10:00:41.794Z,51.34
2019-03-11T10:01:41.325Z,51.23
2019-03-11T10:02:51.556Z,51.14
2019-03-11T10:03:42.327Z,51.03
2019-03-11T10:04:41.297Z,51.03
2019-03-11T10:05:41.287Z,51.14
2019-03-11T10:06:41.267Z,51.34
2019-03-11T10:07:41.280Z,51.43
2019-03-11T10:08:41.277Z,51.54
2019-03-11T10:09:41.241Z,51.54
2019-03-11T10:10:41.226Z,51.54
2019-03-11T10:11:41.218Z,51.54
2019-03-11T10:12:41.206Z,51.43
2019-03-11T10:13:41.223Z,51.43
2019-03-11T10:14:41.194Z,51.43
2019-03-11T10:15:41.173Z,51.34
2019-03-11T10:16:41.166Z,51.34
2019-03-11T10:17:41.150Z,51.34
2019-03-11T10:18:41.189Z,51.34
2019-03-11T10:19:41.122Z,51.34
2019-03-11T10:20:41.113Z,51.43
2019-03-11T10:21:41.107Z,51.54
2019-03-11T10:22:41.107Z,51.64
2019-03-11T10:23:41.115Z,51.84
2019-03-11T10:24:41.082Z,51.73
2019-03-11T10:25:41.093Z,51.84
2019-03-11T10:26:41.055Z,51.73
2019-03-11T10:27:41.038Z,51.64
2019-03-11T10:28:41.041Z,51.54
2019-03-11T10:29:41.023Z,51.43
2019-03-11T10:30:41.032Z,51.34
2019-03-11T10:31:40.995Z,51.23
2019-03-11T10:32:41.194Z,51.14
2019-03-11T10:33:40.979Z,51.14
2019-03-11T10:34:40.967Z,51.03
2019-03-11T10:35:40.993Z,51.03
2019-03-11T10:36:40.941Z,51.14
2019-03-11T10:37:40.933Z,51.14
2019-03-11T10:38:40.926Z,51.14
2019-03-11T10:39:40.916Z,51.14
2019-03-11T10:40:40.931Z,51.23
2019-03-11T10:41:40.922Z,51.03
2019-03-11T10:42:40.875Z,51.14
2019-03-11T10:43:40.865Z,51.23
2019-03-11T10:44:40.864Z,51.23
2019-03-11T10:45:40.851Z,51.14
2019-03-11T10:46:40.872Z,51.14
2019-03-11T10:47:40.847Z,51.14
2019-03-11T10:48:40.825Z,51.14
2019-03-11T10:49:40.804Z,51.14
2019-03-11T10:50:40.814Z,51.14
2019-03-11T10:51:40.813Z,51.14
2019-03-11T10:52:40.799Z,51.23
2019-03-11T10:53:40.759Z,51.23
2019-03-11T10:54:40.773Z,51.23
2019-03-11T10:55:40.742Z,51.23
2019-03-11T10:56:40.767Z,51.23
2019-03-11T10:57:40.771Z,51.26
2019-03-11T10:58:40.739Z,51.34
2019-03-11T10:59:40.699Z,51.34
2019-03-11T11:00:40.714Z,51.46
2019-03-11T11:01:40.721Z,51.46
2019-03-11T11:02:40.664Z,51.34
2019-03-11T11:03:40.649Z,51.36
2019-03-11T11:04:40.642Z,51.23
2019-03-11T11:05:40.636Z,51.26
2019-03-11T11:06:40.657Z,51.26
2019-03-11T11:07:40.610Z,51.23
2019-03-11T11:08:40.636Z,51.36
2019-03-11T11:09:40.596Z,51.23
2019-03-11T11:10:40.593Z,51.34
2019-03-11T11:11:40.580Z,51.26
2019-03-11T11:12:40.563Z,51.36
2019-03-11T11:13:40.585Z,51.36
2019-03-11T11:14:40.541Z,51.36
2019-03-11T11:15:40.522Z,51.36
2019-03-11T11:16:40.516Z,51.36
2019-03-11T11:17:40.501Z,51.36
2019-03-11T11:18:40.522Z,51.36
2019-03-11T11:19:40.521Z,51.36
2019-03-11T11:20:40.476Z,51.34
2019-03-11T11:21:40.461Z,51.23
2019-03-11T11:22:40.451Z,51.23
2019-03-11T11:23:40.449Z,51.23
2019-03-11T11:24:40.466Z,51.23
2019-03-11T11:25:40.421Z,51.23
2019-03-11T11:26:40.410Z,51.26
2019-03-11T11:27:40.395Z,51.26
2019-03-11T11:28:40.390Z,51.23
2019-03-11T11:29:40.417Z,51.36
2019-03-11T11:30:40.361Z,51.36
2019-03-11T11:31:40.355Z,51.23
2019-03-11T11:32:40.348Z,51.14
2019-03-11T11:33:40.335Z,51.14
2019-03-11T11:34:40.347Z,51.06
2019-03-11T11:35:40.323Z,51.03
2019-03-11T11:36:40.300Z,51.06
2019-03-11T11:37:40.333Z,51.06
2019-03-11T11:38:40.289Z,51.03
2019-03-11T11:39:40.273Z,51.06
2019-03-11T11:40:40.259Z,51.06
2019-03-11T11:41:40.250Z,51.16
2019-03-11T11:42:40.360Z,51.23
2019-03-11T11:43:40.244Z,51.06
2019-03-11T11:44:40.220Z,51.03
2019-03-11T11:45:40.207Z,51.03
2019-03-11T11:46:40.192Z,50.93
2019-03-11T11:47:40.219Z,50.93
2019-03-11T11:48:40.204Z,51.03
2019-03-11T11:49:40.168Z,50.93
2019-03-11T11:50:40.149Z,50.93
2019-03-11T11:51:40.142Z,51.03
2019-03-11T11:52:40.125Z,50.93
2019-03-11T11:53:40.171Z,50.83
2019-03-11T11:54:40.113Z,50.60
2019-03-11T11:55:40.102Z,50.40
2019-03-11T11:56:40.105Z,50.31
2019-03-11T11:57:40.072Z,50.10
2019-03-11T11:58:40.923Z,50.00
2019-03-11T11:59:40.053Z,49.88
2019-03-11T12:00:40.147Z,49.68
2019-03-11T12:01:40.032Z,49.57
2019-03-11T12:02:40.022Z,49.37
2019-03-11T12:03:40.038Z,49.27
2019-03-11T12:04:39.997Z,49.18
2019-03-11T12:05:39.998Z,49.05
2019-03-11T12:06:40.003Z,49.05
2019-03-11T12:07:39.967Z,48.85
2019-03-11T12:08:39.983Z,48.85
2019-03-11T12:09:39.945Z,48.85
2019-03-11T12:10:39.935Z,48.95
2019-03-11T12:11:39.933Z,49.13
2019-03-11T12:12:39.918Z,49.13
2019-03-11T12:13:39.931Z,49.22
2019-03-11T12:14:39.895Z,49.22
2019-03-11T12:15:39.936Z,49.22
2019-03-11T12:16:39.867Z,49.22
2019-03-11T12:17:39.871Z,49.21
2019-03-11T12:18:39.891Z,49.10
2019-03-11T12:19:39.842Z,49.10
2019-03-11T12:20:39.826Z,49.01
2019-03-11T12:21:39.825Z,49.01
2019-03-11T12:22:39.803Z,49.01
2019-03-11T12:23:46.229Z,48.90
2019-03-11T12:24:40.789Z,48.80
2019-03-11T12:25:39.774Z,48.80
2019-03-11T12:26:39.755Z,48.70
2019-03-11T12:27:39.748Z,48.70
2019-03-11T12:28:39.773Z,48.60
2019-03-11T12:29:39.746Z,48.50
2019-03-11T12:30:39.714Z,48.50
2019-03-11T12:31:39.731Z,48.40
2019-03-11T12:32:39.690Z,48.40
2019-03-11T12:33:39.682Z,48.28
2019-03-11T12:34:39.668Z,48.28
2019-03-11T12:35:39.693Z,48.18
2019-03-11T12:36:39.646Z,48.18
2019-03-11T12:37:39.636Z,48.08
2019-03-11T12:38:39.625Z,48.08
2019-03-11T12:39:39.619Z,48.08
2019-03-11T12:40:39.632Z,47.97
2019-03-11T12:41:39.589Z,47.97
2019-03-11T12:42:39.586Z,47.97
2019-03-11T12:43:39.577Z,47.97
2019-03-11T12:44:39.563Z,47.97
2019-03-11T12:45:39.579Z,47.88
2019-03-11T12:46:39.575Z,47.97
2019-03-11T12:47:39.522Z,47.97
2019-03-11T12:48:39.518Z,47.97
2019-03-11T12:49:39.508Z,47.97
2019-03-11T12:50:39.491Z,47.97
2019-03-11T12:51:49.290Z,48.00
2019-03-11T12:52:40.465Z,48.00